Time;durP1;ratioP1;P1;durP2;ratioP2;P2;SDS_P1;SDS_P2;PMS_P1;PMS_P2;Temp;Humidity;BMP_temperature;BMP_pressure;BME280_temperature;BME280_humidity;BME280_pressure;Samples;Min_cycle;Max_cycle;Signal;HPM_P1;HPM_P2
2023/04/10 07:22:51;;;;;;;9.63;7.72;;;;;;;-145.79;50.50;78280.34;5349099;27;20342;-82
2023/04/10 07:25:23;;;;;;;9.77;7.03;;;;;;;-145.79;50.60;78280.34;5344363;28;20061;-82
2023/04/10 07:27:54;;;;;;;9.10;8.25;;;;;;;-145.79;50.65;78263.38;5344689;28;20359;-83
2023/04/10 07:30:25;;;;;;;10.57;7.90;;;;;;;-145.79;50.68;78246.41;5343220;28;20055;-83
2023/04/10 07:32:57;;;;;;;9.07;7.78;;;;;;;-145.79;50.38;78248.53;5344057;28;20382;-83
2023/04/10 07:35:32;;;;;;;8.75;7.75;;;;;;;-145.79;50.32;78237.94;5344128;28;20024;-82
2023/04/10 07:38:04;;;;;;;9.43;8.40;;;;;;;-145.79;50.20;78229.47;5343860;27;20024;-82
2023/04/10 07:40:35;;;;;;;8.05;7.28;;;;;;;-145.79;50.09;78231.56;5343539;28;20077;-82
2023/04/10 07:43:06;;;;;;;8.18;7.38;;;;;;;-145.79;49.96;78216.72;5343811;28;20023;-83
2023/04/10 07:45:38;;;;;;;8.13;7.25;;;;;;;-145.79;49.91;78201.91;5343650;28;20110;-82
2023/04/10 07:48:10;;;;;;;8.35;7.30;;;;;;;-145.79;50.00;78201.91;5334974;28;20023;-82
2023/04/10 07:50:41;;;;;;;8.98;7.60;;;;;;;-145.79;49.82;78174.34;5344254;28;20027;-83
2023/04/10 07:53:18;;;;;;;8.05;7.18;;;;;;;-145.79;49.72;78157.38;5343340;28;20023;-82
2023/04/10 07:55:50;;;;;;;10.10;7.57;;;;;;;-145.79;49.62;78144.66;5343675;28;20019;-83
2023/04/10 07:58:21;;;;;;;8.18;7.35;;;;;;;-145.79;49.02;78134.06;5343866;28;20031;-82
2023/04/10 08:00:52;;;;;;;7.90;7.10;;;;;;;-145.79;49.47;78114.97;5342942;27;20096;-82
2023/04/10 08:03:25;;;;;;;9.50;6.82;;;;;;;-145.79;49.04;78089.53;5342561;28;20141;-82
2023/04/10 08:05:56;;;;;;;9.00;7.43;;;;;;;-145.79;48.85;78085.28;5343496;27;20020;-83
2023/04/10 08:08:28;;;;;;;7.70;7.00;;;;;;;-145.79;48.60;78078.94;5342568;28;20024;-83
2023/04/10 08:10:59;;;;;;;7.50;6.72;;;;;;;-145.79;48.49;78072.56;5343013;28;20027;-83
2023/04/10 08:13:30;;;;;;;8.00;7.20;;;;;;;-145.79;49.00;78061.97;5343497;28;20079;-83
2023/04/10 08:16:01;;;;;;;7.47;6.38;;;;;;;-145.79;48.58;78055.63;5342514;28;20034;-82
2023/04/10 08:18:33;;;;;;;7.40;6.70;;;;;;;-145.79;48.59;78049.25;5343361;28;20474;-82
2023/04/10 08:21:04;;;;;;;6.82;6.13;;;;;;;-145.79;48.38;78042.91;5350519;27;20047;-83
2023/04/10 08:23:35;;;;;;;7.03;6.32;;;;;;;-145.79;48.92;78036.53;5348013;28;20023;-82
2023/04/10 08:26:07;;;;;;;8.40;6.82;;;;;;;-145.79;49.11;78025.94;5343121;27;20073;-82
2023/04/10 08:28:38;;;;;;;8.50;6.85;;;;;;;-145.79;48.44;78028.06;5342132;28;20027;-83
2023/04/10 08:31:09;;;;;;;7.60;6.88;;;;;;;-145.79;48.74;78021.69;5342768;28;20024;-81
2023/04/10 08:33:41;;;;;;;9.73;7.05;;;;;;;-145.79;48.46;78017.44;5331452;28;20030;-82
2023/04/10 08:36:14;;;;;;;8.25;7.35;;;;;;;-145.79;48.20;78006.84;5328105;28;20107;-83
2023/04/10 08:38:46;;;;;;;6.70;6.00;;;;;;;-145.79;48.15;78004.72;5327064;28;20034;-82
2023/04/10 08:41:19;;;;;;;8.68;7.88;;;;;;;-145.79;48.54;77992.00;5328561;28;20042;-83
2023/04/10 08:43:50;;;;;;;7.10;6.22;;;;;;;-145.79;48.46;77981.41;5330989;27;20421;-82
2023/04/10 08:46:25;;;;;;;8.60;6.43;;;;;;;-145.79;48.46;77964.47;5328331;28;20028;-82
2023/04/10 08:48:59;;;;;;;7.72;6.93;;;;;;;-145.79;48.28;77953.84;5328057;28;20106;-82
2023/04/10 08:51:36;;;;;;;7.57;6.83;;;;;;;-145.79;48.32;77953.84;5328003;28;20054;-83
2023/04/10 08:54:20;;;;;;;7.60;6.60;;;;;;;-145.79;48.17;77947.50;5326979;28;20037;-82
2023/04/10 08:56:53;;;;;;;8.10;7.30;;;;;;;-145.79;48.51;77945.38;5306245;28;20032;-81
2023/04/10 08:59:27;;;;;;;8.07;7.25;;;;;;;-145.79;47.90;77941.13;5306447;28;20038;-80
2023/04/10 09:01:58;;;;;;;7.30;6.32;;;;;;;-145.79;48.24;77932.66;5307102;28;20028;-83
2023/04/10 09:04:30;;;;;;;7.65;6.88;;;;;;;-145.79;47.95;77930.53;5305844;28;20027;-81
2023/04/10 09:07:01;;;;;;;7.55;6.82;;;;;;;-145.79;47.83;77924.19;5307922;28;20028;-82
2023/04/10 09:09:33;;;;;;;7.80;6.75;;;;;;;-145.79;48.06;77917.81;5306229;28;20102;-82
2023/04/10 09:12:05;;;;;;;7.60;6.85;;;;;;;-145.79;48.27;77911.47;5313458;28;20102;-82
2023/04/10 09:14:37;;;;;;;7.75;6.95;;;;;;;-145.79;48.21;77896.63;5327704;27;20054;-81
2023/04/10 09:17:18;;;;;;;6.88;6.18;;;;;;;-145.79;48.35;77883.91;5327718;28;20024;-84
2023/04/10 09:19:54;;;;;;;7.10;6.40;;;;;;;-145.79;47.73;77881.78;5327118;28;20024;-83
2023/04/10 09:22:33;;;;;;;6.85;6.18;;;;;;;-145.79;48.24;77873.31;5327877;28;20093;-83
2023/04/10 09:25:06;;;;;;;7.75;6.95;;;;;;;-145.79;47.74;77862.69;5326647;28;20034;-83
2023/04/10 09:27:38;;;;;;;7.18;6.47;;;;;;;-145.79;47.59;77856.34;5328105;28;20054;-83
2023/04/10 09:30:12;;;;;;;7.53;6.72;;;;;;;-145.79;47.87;77843.63;5327256;27;20027;-83
2023/04/10 09:32:47;;;;;;;6.80;6.10;;;;;;;-145.79;47.77;77830.91;5327345;28;20085;-82
2023/04/10 09:35:18;;;;;;;8.57;6.05;;;;;;;-145.79;47.66;77828.78;5327583;28;20387;-82
2023/04/10 09:37:50;;;;;;;6.60;6.00;;;;;;;-145.79;47.84;77816.06;5327668;28;20029;-82
2023/04/10 09:40:23;;;;;;;8.35;6.45;;;;;;;-145.79;47.86;77809.69;5327677;28;20027;-83
2023/04/10 09:42:56;;;;;;;7.38;5.80;;;;;;;-145.79;47.60;77796.97;5327673;28;20023;-84
2023/04/10 09:45:45;;;;;;;7.40;6.63;;;;;;;-145.79;47.86;77786.38;5323675;28;20256;-84
2023/04/10 09:48:17;;;;;;;6.65;6.05;;;;;;;-145.79;47.72;77777.91;5324909;28;20103;-83
2023/04/10 09:50:50;;;;;;;7.10;6.40;;;;;;;-145.79;48.02;77769.44;5328127;28;20549;-84
2023/04/10 09:53:21;;;;;;;8.20;6.38;;;;;;;-145.79;47.82;77763.06;5326593;28;20107;-82
2023/04/10 09:55:55;;;;;;;6.90;6.13;;;;;;;-145.79;47.94;77752.47;5327134;28;20126;-84
2023/04/10 09:58:33;;;;;;;8.05;5.68;;;;;;;-145.79;47.47;77741.88;5328307;28;20111;-83
2023/04/10 10:01:05;;;;;;;21.40;18.77;;;;;;;-145.79;47.31;77735.50;5327098;28;20055;-83
2023/04/10 10:03:37;;;;;;;6.68;5.97;;;;;;;-145.79;47.80;77729.16;5327156;28;20111;-82
2023/04/10 10:06:13;;;;;;;8.38;5.85;;;;;;;-145.79;47.56;77712.19;5326898;28;20024;-82
2023/04/10 10:08:47;;;;;;;5.95;5.18;;;;;;;-145.79;47.45;77701.59;5325896;28;20097;-82
2023/04/10 10:11:22;;;;;;;6.90;6.20;;;;;;;-145.79;47.05;77699.47;5326715;27;20027;-80
2023/04/10 10:13:55;;;;;;;6.20;5.60;;;;;;;-145.79;47.05;77695.22;5326061;28;20467;-81
2023/04/10 10:16:45;;;;;;;6.68;5.30;;;;;;;-145.79;46.88;77659.19;5326846;28;20016;-80
2023/04/10 10:19:32;;;;;;;6.50;5.85;;;;;;;-145.79;47.03;77642.25;5326009;28;20572;-80
2023/04/10 10:22:04;;;;;;;6.00;5.45;;;;;;;-145.79;46.39;77642.25;5325600;28;20070;-81
2023/04/10 10:24:37;;;;;;;5.50;4.90;;;;;;;-145.79;46.18;77633.75;5326422;28;20043;-81
2023/04/10 10:27:09;;;;;;;5.05;4.55;;;;;;;-145.79;46.22;77618.91;5326901;28;20030;-81
2023/04/10 10:29:43;;;;;;;5.57;4.22;;;;;;;-145.79;45.44;77604.09;5326027;28;20019;-80
2023/04/10 10:32:16;;;;;;;5.22;4.68;;;;;;;-145.79;45.84;77580.75;5327372;28;20418;-80
2023/04/10 10:34:51;;;;;;;5.07;4.57;;;;;;;-145.79;46.05;77555.31;5326681;28;20030;-80
2023/04/10 10:37:23;;;;;;;5.00;4.50;;;;;;;-145.79;45.50;77538.38;5325562;28;20046;-81
2023/04/10 10:40:29;;;;;;;4.97;4.45;;;;;;;-145.79;45.35;77521.41;5326463;28;20051;-80
2023/04/10 10:43:13;;;;;;;37.30;33.85;;;;;;;-145.79;44.56;77529.88;5302207;28;20436;-81
2023/04/10 10:45:55;;;;;;;7.40;6.68;;;;;;;-145.79;44.54;77529.88;5320520;28;20035;-80
2023/04/10 10:48:27;;;;;;;5.07;4.63;;;;;;;-145.79;44.21;77521.41;5306569;28;20045;-80
2023/04/10 10:51:00;;;;;;;4.53;4.13;;;;;;;-145.79;44.37;77510.81;5309928;28;20044;-80
2023/04/10 10:53:42;;;;;;;4.38;3.97;;;;;;;-145.79;44.23;77500.22;5315031;28;20023;-77
2023/04/10 10:56:19;;;;;;;4.78;4.38;;;;;;;-145.79;44.54;77495.97;5327423;28;20035;-81
2023/04/10 10:58:57;;;;;;;5.20;4.70;;;;;;;-145.79;43.92;77491.75;5326139;28;20032;-80
2023/04/10 11:01:28;;;;;;;4.97;4.53;;;;;;;-145.79;43.92;77479.03;5325690;28;20027;-80
2023/04/10 11:04:20;;;;;;;6.10;4.25;;;;;;;-145.79;44.25;77457.81;5325542;28;20149;-83
2023/04/10 11:06:51;;;;;;;5.60;4.07;;;;;;;-145.79;44.00;77445.09;5326331;28;20027;-83
2023/04/10 11:09:47;;;;;;;4.40;4.00;;;;;;;-145.79;43.68;77426.03;5326007;28;20098;-83
2023/04/10 11:12:20;;;;;;;;;;;;;;;-145.79;43.53;77402.72;5324320;28;20042;-83
2023/04/10 11:14:57;;;;;;;4.53;4.13;;;;;;;-145.79;43.42;77398.47;5326395;28;19911;-82
2023/04/10 11:17:52;;;;;;;4.68;4.18;;;;;;;-145.79;43.43;77373.03;5324733;28;20047;-82
2023/04/10 11:20:26;;;;;;;5.00;3.90;;;;;;;-145.79;43.12;77360.31;5325935;28;20052;-82
2023/04/10 11:23:09;;;;;;;4.38;4.07;;;;;;;-145.79;42.74;77360.31;5325472;28;20027;-81
2023/04/10 11:25:51;;;;;;;5.07;4.25;;;;;;;-145.79;43.01;77339.13;5325134;28;20055;-82
2023/04/10 11:28:32;;;;;;;4.18;3.78;;;;;;;-145.79;43.05;77324.28;5314440;28;20048;-81
2023/04/10 11:31:22;;;;;;;5.30;4.10;;;;;;;-145.79;43.08;77313.69;5303500;28;20035;-82
2023/04/10 11:34:04;;;;;;;3.95;3.55;;;;;;;-145.79;42.78;77303.09;5304289;28;20029;-82
2023/04/10 11:36:43;;;;;;;6.38;4.38;;;;;;;-145.79;42.56;77305.22;5304717;28;20460;-83
2023/04/10 11:39:21;;;;;;;14.05;6.28;;;;;;;-145.79;42.45;77305.22;5303421;28;20016;-82
2023/04/10 11:41:55;;;;;;;6.45;5.53;;;;;;;-145.79;42.90;77279.78;5304443;28;20024;-81
2023/04/10 11:44:30;;;;;;;4.07;3.67;;;;;;;-145.79;42.48;77288.25;5304347;28;20027;-82
2023/04/10 11:47:01;;;;;;;16.98;14.90;;;;;;;-145.79;42.41;77284.00;5319264;28;20044;-82
2023/04/10 11:49:33;;;;;;;4.80;4.38;;;;;;;-145.79;42.52;77271.28;5325102;28;20032;-82
2023/04/10 11:52:05;;;;;;;4.20;3.80;;;;;;;-145.79;42.32;77275.53;5325025;28;20046;-82
2023/04/10 11:54:36;;;;;;;4.32;3.92;;;;;;;-145.79;42.09;77275.53;5323841;28;20020;-81
2023/04/10 11:57:10;;;;;;;4.03;3.63;;;;;;;-145.79;42.28;77273.41;5325032;28;20028;-82
2023/04/10 11:59:50;;;;;;;4.93;3.75;;;;;;;-145.79;42.39;77269.19;5324569;28;20064;-81
2023/04/10 12:02:21;;;;;;;6.00;3.70;;;;;;;-145.79;42.13;77262.81;5323755;28;20016;-82
2023/04/10 12:05:01;;;;;;;3.70;3.40;;;;;;;-145.79;41.89;77250.09;5325253;28;20374;-81
2023/04/10 12:07:32;;;;;;;5.20;4.05;;;;;;;-145.79;42.09;77252.22;5324919;28;20110;-79
2023/04/10 12:10:05;;;;;;;4.43;3.28;;;;;;;-145.79;41.98;77241.63;5329238;28;20092;-82
2023/04/10 12:12:36;;;;;;;6.47;5.88;;;;;;;-145.79;41.95;77228.91;5329208;28;20034;-83
2023/04/10 12:15:27;;;;;;;4.50;3.22;;;;;;;-145.79;42.06;77237.38;5329191;28;20027;-81
2023/04/10 12:17:59;;;;;;;3.50;3.10;;;;;;;-145.79;42.08;77233.16;5329224;28;20490;-81
2023/04/10 12:20:31;;;;;;;4.40;3.95;;;;;;;-145.79;41.92;77233.16;5327362;28;20039;-80
2023/04/10 12:23:02;;;;;;;4.03;3.65;;;;;;;-145.79;41.68;77231.03;5329529;28;20510;-81
2023/04/10 12:25:34;;;;;;;5.32;3.60;;;;;;;-145.79;42.06;77228.91;5329768;28;20387;-80
2023/04/10 12:28:05;;;;;;;4.38;3.97;;;;;;;-145.79;42.18;77224.66;5329049;28;20023;-82
2023/04/10 12:30:37;;;;;;;3.63;3.33;;;;;;;-145.79;42.40;77211.94;5329585;28;20019;-79
2023/04/10 12:33:08;;;;;;;5.35;3.40;;;;;;;-145.79;42.63;77203.47;5328270;28;20038;-79
2023/04/10 12:35:41;;;;;;;3.60;3.30;;;;;;;-145.79;42.45;77199.22;5327550;28;20466;-78
2023/04/10 12:38:13;;;;;;;4.40;3.20;;;;;;;-145.79;42.29;77203.47;5328344;28;20487;-78
2023/04/10 12:40:56;;;;;;;3.55;3.25;;;;;;;-145.79;41.89;77199.22;5328096;28;20092;-78
2023/04/10 12:43:38;;;;;;;4.00;3.60;;;;;;;-145.79;42.29;77199.22;5327280;28;20036;-80
2023/04/10 12:46:22;;;;;;;4.15;3.60;;;;;;;-145.79;42.47;77195.00;5328426;28;20097;-81
2023/04/10 12:48:55;;;;;;;3.67;3.00;;;;;;;-145.79;42.72;77197.09;5327833;28;20076;-82
2023/04/10 12:51:51;;;;;;;3.85;2.95;;;;;;;-145.79;42.43;77192.88;5329464;28;20427;-81
2023/04/10 12:54:33;;;;;;;4.53;3.70;;;;;;;-145.79;42.22;77192.88;5327444;27;20031;-81
2023/04/10 12:57:05;;;;;;;6.45;2.85;;;;;;;-145.79;42.54;77190.75;5328158;28;20030;-81
2023/04/10 12:59:36;;;;;;;4.85;2.90;;;;;;;-145.79;42.42;77195.00;5328626;28;20023;-81
2023/04/10 13:02:07;;;;;;;3.38;2.70;;;;;;;-145.79;42.10;77186.50;5328089;28;20031;-81
2023/04/10 13:04:39;;;;;;;4.30;2.70;;;;;;;-145.79;42.12;77184.41;5326994;28;20024;-82
2023/04/10 13:07:10;;;;;;;3.63;2.72;;;;;;;-145.79;42.22;77186.50;5328527;28;20137;-83
2023/04/10 13:09:41;;;;;;;4.82;3.00;;;;;;;-145.79;42.38;77178.03;5308451;28;20112;-83
2023/04/10 13:12:13;;;;;;;4.38;3.55;;;;;;;-145.79;42.00;77173.78;5328195;28;20055;-82
2023/04/10 13:14:45;;;;;;;5.57;3.15;;;;;;;-145.79;42.24;77171.69;5327975;28;20016;-82
2023/04/10 13:17:16;;;;;;;3.58;2.80;;;;;;;-145.79;41.95;77169.56;5327353;28;20084;-82
2023/04/10 13:19:48;;;;;;;3.70;3.28;;;;;;;-145.79;42.04;77171.69;5327375;28;20023;-82
2023/04/10 13:22:20;;;;;;;3.60;3.30;;;;;;;-145.79;42.22;77169.56;5336762;28;20048;-82
2023/04/10 13:24:52;;;;;;;3.08;2.70;;;;;;;-145.79;42.54;77161.06;5340610;28;20032;-79
2023/04/10 13:27:26;;;;;;;3.50;3.20;;;;;;;-145.79;42.26;77156.84;5329279;28;20032;-81
2023/04/10 13:29:58;;;;;;;3.40;2.90;;;;;;;-145.79;42.23;77156.84;5327910;28;20036;-80
2023/04/10 13:32:29;;;;;;;3.83;2.60;;;;;;;-145.79;42.42;77148.34;5332375;28;20029;-81
2023/04/10 13:35:01;;;;;;;2.67;2.47;;;;;;;-145.79;42.47;77148.34;5327532;28;20028;-81
2023/04/10 13:37:32;;;;;;;3.25;2.83;;;;;;;-145.79;42.48;77144.13;5327977;28;20015;-78
2023/04/10 13:40:04;;;;;;;3.40;3.10;;;;;;;-145.79;42.51;77137.75;5326395;28;20055;-76
2023/04/10 13:42:35;;;;;;;3.55;3.13;;;;;;;-145.79;42.54;77120.81;5327394;28;20474;-81
2023/04/10 13:45:07;;;;;;;3.55;2.67;;;;;;;-145.79;42.69;77122.94;5318224;28;20037;-82
2023/04/10 13:47:38;;;;;;;4.22;3.53;;;;;;;-145.79;42.92;77118.69;5327545;28;20400;-81
2023/04/10 13:50:10;;;;;;;3.20;2.90;;;;;;;-145.79;43.25;77110.22;5327257;28;20397;-82
2023/04/10 13:52:41;;;;;;;2.80;2.60;;;;;;;-145.79;43.28;77089.00;5327243;28;20138;-82
2023/04/10 13:55:12;;;;;;;3.20;2.90;;;;;;;-145.79;43.58;77080.53;5331906;27;20038;-82
2023/04/10 13:57:44;;;;;;;3.33;2.83;;;;;;;-145.79;44.06;77076.31;5322168;28;20050;-82
2023/04/10 14:00:16;;;;;;;3.22;2.50;;;;;;;-145.79;44.59;77080.53;5306637;28;20020;-81
2023/04/10 14:02:47;;;;;;;2.70;2.50;;;;;;;-145.79;45.10;77080.53;5327569;28;20096;-81
2023/04/10 14:05:25;;;;;;;3.47;3.17;;;;;;;-145.79;45.99;77076.31;5326564;28;20478;-82
2023/04/10 14:07:59;;;;;;;3.58;2.75;;;;;;;-145.79;45.84;77082.66;5326090;28;20046;-82
2023/04/10 14:10:30;;;;;;;4.65;4.25;;;;;;;-145.79;46.32;77084.78;5326682;28;20055;-78
2023/04/10 14:13:01;;;;;;;3.83;3.10;;;;;;;-145.79;46.27;77097.50;5325238;28;20525;-76
2023/04/10 14:15:32;;;;;;;3.50;3.10;;;;;;;-145.79;47.26;77097.50;5325822;28;20043;-78
2023/04/10 14:18:04;;;;;;;4.50;3.15;;;;;;;-145.79;47.47;77101.72;5325074;28;20026;-76
2023/04/10 14:20:35;;;;;;;3.75;3.22;;;;;;;-145.79;47.63;77114.44;5326040;28;20016;-81
2023/04/10 14:23:07;;;;;;;3.40;3.08;;;;;;;-145.79;47.82;77116.56;5327616;28;20040;-81
2023/04/10 14:25:38;;;;;;;3.85;2.92;;;;;;;-145.79;47.92;77139.88;5328370;28;20062;-81
2023/04/10 14:28:16;;;;;;;4.05;2.80;;;;;;;-145.79;47.33;77150.47;5327932;28;20106;-81
2023/04/10 14:30:53;;;;;;;3.55;2.55;;;;;;;-145.79;48.63;77158.97;5330094;28;20456;-81
2023/04/10 14:33:24;;;;;;;2.78;2.50;;;;;;;-145.79;48.94;77158.97;5328048;28;20462;-82
2023/04/10 14:35:55;;;;;;;3.33;2.50;;;;;;;-145.79;49.76;77161.06;5325346;28;20072;-83
2023/04/10 14:38:26;;;;;;;3.33;3.03;;;;;;;-145.79;50.15;77173.78;5327401;28;20031;-82
2023/04/10 14:40:58;;;;;;;4.25;3.85;;;;;;;-145.79;50.28;77178.03;5325749;28;20114;-81
2023/04/10 14:43:29;;;;;;;3.58;2.30;;;;;;;-145.79;50.45;77192.88;5326864;28;20045;-81
2023/04/10 14:46:00;;;;;;;5.22;2.92;;;;;;;-145.79;51.68;77195.00;5326089;28;20020;-82
2023/04/10 14:48:32;;;;;;;2.85;2.58;;;;;;;-145.79;52.77;77203.47;5325596;28;20053;-82
2023/04/10 14:51:11;;;;;;;3.05;2.40;;;;;;;-145.79;51.78;77207.72;5325794;28;20132;-80
2023/04/10 14:53:44;;;;;;;3.80;2.75;;;;;;;-145.79;52.10;77209.81;5304857;28;20028;-81
2023/04/10 14:56:16;;;;;;;3.92;2.55;;;;;;;-145.79;52.79;77203.47;5304358;28;20036;-82
2023/04/10 14:58:48;;;;;;;4.35;2.60;;;;;;;-145.79;53.03;77211.94;5305112;28;20040;-81
2023/04/10 15:01:19;;;;;;;3.67;2.80;;;;;;;-145.79;53.60;77203.47;5316890;27;20031;-81
2023/04/10 15:03:50;;;;;;;3.97;2.60;;;;;;;-145.79;54.09;77205.59;5323547;28;20085;-84
2023/04/10 15:06:21;;;;;;;3.28;2.97;;;;;;;-145.79;53.64;77199.22;5325137;28;20035;-81
2023/04/10 15:08:55;;;;;;;3.72;2.58;;;;;;;-145.79;52.42;77188.63;5319582;28;20047;-83
2023/04/10 15:11:26;;;;;;;3.20;2.78;;;;;;;-145.79;52.81;77169.56;5311428;28;20086;-80
2023/04/10 15:13:59;;;;;;;3.75;3.00;;;;;;;-145.79;52.46;77163.19;5317611;28;20110;-81
2023/04/10 15:16:30;;;;;;;4.15;2.83;;;;;;;-145.79;51.93;77161.06;5324064;28;20049;-80
2023/04/10 15:19:01;;;;;;;3.95;2.70;;;;;;;-145.79;52.82;77156.84;5324646;28;20750;-81
2023/04/10 15:21:33;;;;;;;2.85;2.45;;;;;;;-145.79;52.21;77156.84;5307602;28;20133;-82
2023/04/10 15:24:04;;;;;;;3.03;2.53;;;;;;;-145.79;51.41;77150.47;5307023;28;20028;-81
2023/04/10 15:26:35;;;;;;;4.30;2.75;;;;;;;-145.79;52.46;77152.59;5310668;28;20036;-80
2023/04/10 15:29:07;;;;;;;5.47;2.45;;;;;;;-145.79;53.14;77154.72;5313809;28;20028;-81
2023/04/10 15:31:38;;;;;;;4.72;3.13;;;;;;;-145.79;53.93;77148.34;5323342;28;20152;-80
2023/04/10 15:34:10;;;;;;;3.08;2.30;;;;;;;-145.79;51.63;77152.59;5324425;28;20022;-81
2023/04/10 15:36:41;;;;;;;2.67;2.45;;;;;;;-145.79;52.47;77144.13;5324121;28;20023;-81
2023/04/10 15:39:14;;;;;;;3.15;2.60;;;;;;;-145.79;51.88;77148.34;5323834;28;20098;-81
2023/04/10 15:41:48;;;;;;;2.17;1.92;;;;;;;-145.79;51.29;77144.13;5320888;28;20065;-80
2023/04/10 15:44:20;;;;;;;3.05;2.75;;;;;;;-145.79;51.78;77137.75;5318077;28;20055;-81
2023/04/10 15:46:54;;;;;;;5.00;2.72;;;;;;;-145.79;51.21;77133.53;5329668;28;20058;-81
2023/04/10 15:49:25;;;;;;;3.20;2.60;;;;;;;-145.79;51.55;77131.41;5330312;28;20019;-80
2023/04/10 15:51:57;;;;;;;5.40;3.35;;;;;;;-145.79;52.48;77131.41;5328724;28;20068;-80
2023/04/10 15:54:28;;;;;;;3.47;2.35;;;;;;;-145.79;52.05;77139.88;5334873;28;20081;-80
2023/04/10 15:57:00;;;;;;;3.53;2.60;;;;;;;-145.79;51.11;77131.41;5333372;28;20024;-80
2023/04/10 15:59:32;;;;;;;3.05;2.17;;;;;;;-145.79;52.14;77131.41;5327950;28;20024;-81
2023/04/10 16:02:05;;;;;;;5.07;2.72;;;;;;;-145.79;50.93;77133.53;5330040;28;20027;-81
2023/04/10 16:04:36;;;;;;;3.22;2.40;;;;;;;-145.79;51.32;77127.16;5315977;28;20035;-81
2023/04/10 16:07:08;;;;;;;2.45;2.25;;;;;;;-145.79;51.71;77122.94;5326783;28;20027;-81
2023/04/10 16:09:39;;;;;;;3.92;2.65;;;;;;;-145.79;51.83;77118.69;5327234;28;20039;-82
2023/04/10 16:12:11;;;;;;;3.40;3.00;;;;;;;-145.79;51.74;77114.44;5329211;28;20028;-82
2023/04/10 16:14:43;;;;;;;2.95;2.65;;;;;;;-145.79;51.92;77114.44;5327686;28;20085;-81
2023/04/10 16:17:14;;;;;;;2.80;2.45;;;;;;;-145.79;52.52;77118.69;5320329;28;20032;-81
2023/04/10 16:19:45;;;;;;;3.38;2.67;;;;;;;-145.79;51.99;77127.16;5307614;28;20052;-81
2023/04/10 16:22:16;;;;;;;3.13;2.83;;;;;;;-145.79;52.37;77133.53;5328596;28;20078;-81
2023/04/10 16:24:48;;;;;;;4.63;2.33;;;;;;;-145.79;52.32;77137.75;5329184;28;20047;-83
2023/04/10 16:27:20;;;;;;;3.80;2.83;;;;;;;-145.79;52.64;77137.75;5328512;28;20028;-82
2023/04/10 16:29:51;;;;;;;3.97;3.28;;;;;;;-145.79;53.25;77144.13;5329084;28;20536;-83
2023/04/10 16:32:23;;;;;;;3.58;3.22;;;;;;;-145.79;55.73;77158.97;5329558;28;20478;-82
2023/04/10 16:34:54;;;;;;;4.25;2.90;;;;;;;-145.79;57.61;77190.75;5315095;28;20075;-81
2023/04/10 16:37:25;;;;;;;4.82;3.53;;;;;;;-145.79;58.75;77199.22;5321081;28;20079;-82
2023/04/10 16:39:57;;;;;;;5.95;3.70;;;;;;;-145.79;60.10;77209.81;5326456;28;20041;-82
2023/04/10 16:42:28;;;;;;;3.85;3.40;;;;;;;-145.79;61.43;77237.38;5314435;28;20494;-80
2023/04/10 16:45:00;;;;;;;4.80;4.35;;;;;;;-145.79;63.64;77258.56;5328594;28;20030;-83
2023/04/10 16:47:32;;;;;;;4.38;3.35;;;;;;;-145.79;67.83;77300.97;5328255;28;20020;-81
2023/04/10 16:50:04;;;;;;;6.03;3.53;;;;;;;-145.79;70.38;77317.94;5328701;28;20020;-80
2023/04/10 16:52:36;;;;;;;4.13;3.55;;;;;;;-145.79;73.44;77330.66;5331821;28;20387;-81
